sensor_id;sensor_type;location;lat;lon;timestamp;P1;durP1;ratioP1;P2;durP2;ratioP2
50605;SDS011;36557;53.572;10.170;2023-04-25T00:02:03;5.53;;;2.20;;
50605;SDS011;36557;53.572;10.170;2023-04-25T00:04:28;3.97;;;1.90;;
50605;SDS011;36557;53.572;10.170;2023-04-25T00:06:54;4.28;;;1.90;;
50605;SDS011;36557;53.572;10.170;2023-04-25T00:09:21;2.65;;;1.73;;
50605;SDS011;36557;53.572;10.170;2023-04-25T00:11:47;3.97;;;2.25;;
50605;SDS011;36557;53.572;10.170;2023-04-25T00:14:13;5.13;;;2.15;;
50605;SDS011;36557;53.572;10.170;2023-04-25T00:16:39;3.47;;;1.98;;
50605;SDS011;36557;53.572;10.170;2023-04-25T00:19:06;4.57;;;2.10;;
50605;SDS011;36557;53.572;10.170;2023-04-25T00:21:32;7.25;;;2.35;;
50605;SDS011;36557;53.572;10.170;2023-04-25T00:23:58;4.32;;;1.80;;
50605;SDS011;36557;53.572;10.170;2023-04-25T00:26:25;7.00;;;2.20;;
50605;SDS011;36557;53.572;10.170;2023-04-25T00:28:51;6.32;;;2.35;;
50605;SDS011;36557;53.572;10.170;2023-04-25T00:31:16;5.25;;;2.13;;
50605;SDS011;36557;53.572;10.170;2023-04-25T00:33:42;6.07;;;2.05;;
50605;SDS011;36557;53.572;10.170;2023-04-25T00:36:08;6.35;;;2.22;;
50605;SDS011;36557;53.572;10.170;2023-04-25T00:38:34;9.55;;;2.38;;
50605;SDS011;36557;53.572;10.170;2023-04-25T00:41:00;9.32;;;2.22;;
50605;SDS011;36557;53.572;10.170;2023-04-25T00:43:26;12.75;;;2.30;;
50605;SDS011;36557;53.572;10.170;2023-04-25T00:45:53;9.70;;;2.42;;
50605;SDS011;36557;53.572;10.170;2023-04-25T00:48:21;8.48;;;2.08;;
50605;SDS011;36557;53.572;10.170;2023-04-25T00:50:51;7.03;;;2.00;;
50605;SDS011;36557;53.572;10.170;2023-04-25T00:53:22;10.00;;;2.33;;
50605;SDS011;36557;53.572;10.170;2023-04-25T00:55:48;16.33;;;2.50;;
50605;SDS011;36557;53.572;10.170;2023-04-25T00:58:16;11.60;;;2.45;;
50605;SDS011;36557;53.572;10.170;2023-04-25T01:00:46;12.38;;;2.45;;
50605;SDS011;36557;53.572;10.170;2023-04-25T01:03:14;12.45;;;2.28;;
50605;SDS011;36557;53.572;10.170;2023-04-25T01:05:41;11.93;;;2.45;;
50605;SDS011;36557;53.572;10.170;2023-04-25T01:08:08;13.40;;;2.22;;
50605;SDS011;36557;53.572;10.170;2023-04-25T01:10:34;15.98;;;3.03;;
50605;SDS011;36557;53.572;10.170;2023-04-25T01:13:00;16.50;;;2.90;;
50605;SDS011;36557;53.572;10.170;2023-04-25T01:15:26;13.65;;;2.65;;
50605;SDS011;36557;53.572;10.170;2023-04-25T01:17:52;14.27;;;3.22;;
50605;SDS011;36557;53.572;10.170;2023-04-25T01:20:19;12.27;;;2.35;;
50605;SDS011;36557;53.572;10.170;2023-04-25T01:22:48;19.08;;;3.13;;
50605;SDS011;36557;53.572;10.170;2023-04-25T01:25:15;14.98;;;2.78;;
50605;SDS011;36557;53.572;10.170;2023-04-25T01:27:41;15.35;;;2.50;;
50605;SDS011;36557;53.572;10.170;2023-04-25T01:30:07;15.20;;;2.53;;
50605;SDS011;36557;53.572;10.170;2023-04-25T01:32:34;15.60;;;2.75;;
50605;SDS011;36557;53.572;10.170;2023-04-25T01:35:06;22.00;;;3.35;;
50605;SDS011;36557;53.572;10.170;2023-04-25T01:37:43;23.80;;;2.95;;
50605;SDS011;36557;53.572;10.170;2023-04-25T01:40:10;14.43;;;2.85;;
50605;SDS011;36557;53.572;10.170;2023-04-25T01:42:37;18.45;;;2.65;;
50605;SDS011;36557;53.572;10.170;2023-04-25T01:45:05;16.00;;;2.65;;
50605;SDS011;36557;53.572;10.170;2023-04-25T01:47:32;16.73;;;2.97;;
50605;SDS011;36557;53.572;10.170;2023-04-25T01:50:00;18.63;;;2.97;;
50605;SDS011;36557;53.572;10.170;2023-04-25T01:52:26;19.25;;;3.35;;
50605;SDS011;36557;53.572;10.170;2023-04-25T01:54:52;17.63;;;2.50;;
50605;SDS011;36557;53.572;10.170;2023-04-25T01:57:18;14.68;;;3.10;;
50605;SDS011;36557;53.572;10.170;2023-04-25T01:59:44;13.45;;;2.80;;
50605;SDS011;36557;53.572;10.170;2023-04-25T02:02:11;21.58;;;3.28;;
50605;SDS011;36557;53.572;10.170;2023-04-25T02:04:36;14.93;;;2.70;;
50605;SDS011;36557;53.572;10.170;2023-04-25T02:07:03;20.08;;;4.10;;
50605;SDS011;36557;53.572;10.170;2023-04-25T02:09:28;22.55;;;3.65;;
50605;SDS011;36557;53.572;10.170;2023-04-25T02:11:54;16.13;;;2.90;;
50605;SDS011;36557;53.572;10.170;2023-04-25T02:14:20;20.90;;;3.45;;
50605;SDS011;36557;53.572;10.170;2023-04-25T02:16:46;12.93;;;2.88;;
50605;SDS011;36557;53.572;10.170;2023-04-25T02:19:12;15.68;;;3.58;;
50605;SDS011;36557;53.572;10.170;2023-04-25T02:21:38;16.30;;;3.10;;
50605;SDS011;36557;53.572;10.170;2023-04-25T02:24:04;23.35;;;3.88;;
50605;SDS011;36557;53.572;10.170;2023-04-25T02:26:30;13.45;;;3.15;;
50605;SDS011;36557;53.572;10.170;2023-04-25T02:28:56;19.40;;;3.65;;
50605;SDS011;36557;53.572;10.170;2023-04-25T02:31:23;15.35;;;2.80;;
50605;SDS011;36557;53.572;10.170;2023-04-25T02:33:49;12.00;;;2.20;;
50605;SDS011;36557;53.572;10.170;2023-04-25T02:36:15;15.88;;;2.92;;
50605;SDS011;36557;53.572;10.170;2023-04-25T02:38:41;12.95;;;2.53;;
50605;SDS011;36557;53.572;10.170;2023-04-25T02:41:07;22.90;;;2.92;;
50605;SDS011;36557;53.572;10.170;2023-04-25T02:43:33;14.65;;;2.63;;
50605;SDS011;36557;53.572;10.170;2023-04-25T02:45:59;18.77;;;3.53;;
50605;SDS011;36557;53.572;10.170;2023-04-25T02:48:25;10.82;;;2.55;;
50605;SDS011;36557;53.572;10.170;2023-04-25T02:50:51;21.20;;;3.15;;
50605;SDS011;36557;53.572;10.170;2023-04-25T02:53:17;10.20;;;2.65;;
50605;SDS011;36557;53.572;10.170;2023-04-25T02:55:43;14.10;;;3.25;;
50605;SDS011;36557;53.572;10.170;2023-04-25T02:58:09;18.38;;;3.47;;
50605;SDS011;36557;53.572;10.170;2023-04-25T03:00:36;15.70;;;3.35;;
50605;SDS011;36557;53.572;10.170;2023-04-25T03:03:02;10.75;;;3.03;;
50605;SDS011;36557;53.572;10.170;2023-04-25T03:05:28;16.45;;;2.90;;
50605;SDS011;36557;53.572;10.170;2023-04-25T03:07:54;18.00;;;2.75;;
50605;SDS011;36557;53.572;10.170;2023-04-25T03:10:20;15.90;;;2.90;;
50605;SDS011;36557;53.572;10.170;2023-04-25T03:12:46;17.88;;;3.15;;
50605;SDS011;36557;53.572;10.170;2023-04-25T03:15:12;17.55;;;2.75;;
50605;SDS011;36557;53.572;10.170;2023-04-25T03:17:38;14.82;;;2.50;;
50605;SDS011;36557;53.572;10.170;2023-04-25T03:20:04;9.43;;;2.30;;
50605;SDS011;36557;53.572;10.170;2023-04-25T03:22:32;15.73;;;2.72;;
50605;SDS011;36557;53.572;10.170;2023-04-25T03:24:58;17.45;;;3.28;;
50605;SDS011;36557;53.572;10.170;2023-04-25T03:27:24;17.20;;;4.05;;
50605;SDS011;36557;53.572;10.170;2023-04-25T03:29:50;17.30;;;2.60;;
50605;SDS011;36557;53.572;10.170;2023-04-25T03:32:16;18.95;;;3.80;;
50605;SDS011;36557;53.572;10.170;2023-04-25T03:34:43;11.88;;;2.78;;
50605;SDS011;36557;53.572;10.170;2023-04-25T03:37:09;16.90;;;3.00;;
50605;SDS011;36557;53.572;10.170;2023-04-25T03:39:35;13.07;;;2.33;;
50605;SDS011;36557;53.572;10.170;2023-04-25T03:42:01;15.32;;;2.40;;
50605;SDS011;36557;53.572;10.170;2023-04-25T03:44:27;15.90;;;2.70;;
50605;SDS011;36557;53.572;10.170;2023-04-25T03:46:53;9.25;;;2.42;;
50605;SDS011;36557;53.572;10.170;2023-04-25T03:49:20;15.80;;;2.70;;
50605;SDS011;36557;53.572;10.170;2023-04-25T03:51:46;13.70;;;2.92;;
50605;SDS011;36557;53.572;10.170;2023-04-25T03:54:12;15.38;;;2.28;;
50605;SDS011;36557;53.572;10.170;2023-04-25T03:56:38;13.23;;;2.38;;
50605;SDS011;36557;53.572;10.170;2023-04-25T03:59:04;16.65;;;2.58;;
50605;SDS011;36557;53.572;10.170;2023-04-25T04:01:30;10.20;;;3.10;;
50605;SDS011;36557;53.572;10.170;2023-04-25T04:03:56;13.05;;;2.65;;
50605;SDS011;36557;53.572;10.170;2023-04-25T04:06:22;13.07;;;2.92;;
50605;SDS011;36557;53.572;10.170;2023-04-25T04:08:48;12.35;;;2.17;;
50605;SDS011;36557;53.572;10.170;2023-04-25T04:11:14;13.02;;;2.90;;
50605;SDS011;36557;53.572;10.170;2023-04-25T04:13:40;13.75;;;2.38;;
50605;SDS011;36557;53.572;10.170;2023-04-25T04:16:06;17.73;;;2.90;;
50605;SDS011;36557;53.572;10.170;2023-04-25T04:18:32;13.75;;;2.90;;
50605;SDS011;36557;53.572;10.170;2023-04-25T04:20:58;13.57;;;2.30;;
50605;SDS011;36557;53.572;10.170;2023-04-25T04:23:24;11.93;;;2.53;;
50605;SDS011;36557;53.572;10.170;2023-04-25T04:25:52;12.00;;;2.42;;
50605;SDS011;36557;53.572;10.170;2023-04-25T04:28:19;10.63;;;2.47;;
50605;SDS011;36557;53.572;10.170;2023-04-25T04:30:45;15.93;;;2.55;;
50605;SDS011;36557;53.572;10.170;2023-04-25T04:33:12;7.50;;;2.05;;
50605;SDS011;36557;53.572;10.170;2023-04-25T04:35:38;17.10;;;2.85;;
50605;SDS011;36557;53.572;10.170;2023-04-25T04:38:04;15.40;;;2.95;;
50605;SDS011;36557;53.572;10.170;2023-04-25T04:40:30;12.65;;;2.60;;
50605;SDS011;36557;53.572;10.170;2023-04-25T04:42:57;13.95;;;2.63;;
50605;SDS011;36557;53.572;10.170;2023-04-25T04:45:23;15.63;;;2.55;;
50605;SDS011;36557;53.572;10.170;2023-04-25T04:47:49;10.65;;;2.30;;
50605;SDS011;36557;53.572;10.170;2023-04-25T04:50:16;14.20;;;3.13;;
50605;SDS011;36557;53.572;10.170;2023-04-25T04:52:43;9.55;;;2.08;;
50605;SDS011;36557;53.572;10.170;2023-04-25T04:55:09;16.55;;;2.45;;
50605;SDS011;36557;53.572;10.170;2023-04-25T04:57:35;11.80;;;2.28;;
50605;SDS011;36557;53.572;10.170;2023-04-25T05:00:01;13.40;;;2.35;;
50605;SDS011;36557;53.572;10.170;2023-04-25T05:02:30;12.07;;;2.50;;
50605;SDS011;36557;53.572;10.170;2023-04-25T05:04:56;15.48;;;3.25;;
50605;SDS011;36557;53.572;10.170;2023-04-25T05:07:22;17.30;;;2.55;;
50605;SDS011;36557;53.572;10.170;2023-04-25T05:09:48;9.35;;;3.22;;
50605;SDS011;36557;53.572;10.170;2023-04-25T05:12:14;12.23;;;2.60;;
50605;SDS011;36557;53.572;10.170;2023-04-25T05:14:40;11.50;;;2.10;;
50605;SDS011;36557;53.572;10.170;2023-04-25T05:17:06;9.32;;;2.20;;
50605;SDS011;36557;53.572;10.170;2023-04-25T05:19:33;13.43;;;3.13;;
50605;SDS011;36557;53.572;10.170;2023-04-25T05:21:59;13.55;;;2.63;;
50605;SDS011;36557;53.572;10.170;2023-04-25T05:24:26;13.77;;;3.35;;
50605;SDS011;36557;53.572;10.170;2023-04-25T05:26:52;16.80;;;2.70;;
50605;SDS011;36557;53.572;10.170;2023-04-25T05:29:18;15.90;;;2.67;;
50605;SDS011;36557;53.572;10.170;2023-04-25T05:31:44;12.48;;;2.95;;
50605;SDS011;36557;53.572;10.170;2023-04-25T05:34:10;13.57;;;2.47;;
50605;SDS011;36557;53.572;10.170;2023-04-25T05:36:36;10.27;;;1.80;;
50605;SDS011;36557;53.572;10.170;2023-04-25T05:39:02;10.30;;;2.40;;
50605;SDS011;36557;53.572;10.170;2023-04-25T05:41:29;12.20;;;2.10;;
50605;SDS011;36557;53.572;10.170;2023-04-25T05:43:55;8.73;;;2.13;;
50605;SDS011;36557;53.572;10.170;2023-04-25T05:46:21;7.75;;;1.70;;
50605;SDS011;36557;53.572;10.170;2023-04-25T05:48:47;13.27;;;2.10;;
50605;SDS011;36557;53.572;10.170;2023-04-25T05:51:13;14.25;;;2.10;;
50605;SDS011;36557;53.572;10.170;2023-04-25T05:53:39;11.55;;;2.60;;
50605;SDS011;36557;53.572;10.170;2023-04-25T05:56:05;8.15;;;2.05;;
50605;SDS011;36557;53.572;10.170;2023-04-25T05:58:31;8.13;;;2.03;;
50605;SDS011;36557;53.572;10.170;2023-04-25T06:00:57;9.98;;;2.50;;
50605;SDS011;36557;53.572;10.170;2023-04-25T06:03:24;15.65;;;2.33;;
50605;SDS011;36557;53.572;10.170;2023-04-25T06:05:50;17.48;;;2.25;;
50605;SDS011;36557;53.572;10.170;2023-04-25T06:08:17;14.82;;;2.50;;
50605;SDS011;36557;53.572;10.170;2023-04-25T06:10:43;15.07;;;2.30;;
50605;SDS011;36557;53.572;10.170;2023-04-25T06:13:09;10.98;;;2.30;;
50605;SDS011;36557;53.572;10.170;2023-04-25T06:15:35;11.32;;;3.00;;
50605;SDS011;36557;53.572;10.170;2023-04-25T06:18:01;12.52;;;2.13;;
50605;SDS011;36557;53.572;10.170;2023-04-25T06:20:27;14.27;;;1.90;;
50605;SDS011;36557;53.572;10.170;2023-04-25T06:22:53;10.55;;;2.28;;
50605;SDS011;36557;53.572;10.170;2023-04-25T06:25:19;12.93;;;2.50;;
50605;SDS011;36557;53.572;10.170;2023-04-25T06:27:46;12.15;;;2.05;;
50605;SDS011;36557;53.572;10.170;2023-04-25T06:30:12;18.42;;;2.42;;
50605;SDS011;36557;53.572;10.170;2023-04-25T06:32:38;9.85;;;2.10;;
50605;SDS011;36557;53.572;10.170;2023-04-25T06:35:04;9.60;;;1.92;;
50605;SDS011;36557;53.572;10.170;2023-04-25T06:37:31;14.63;;;2.40;;
50605;SDS011;36557;53.572;10.170;2023-04-25T06:39:57;8.48;;;2.20;;
50605;SDS011;36557;53.572;10.170;2023-04-25T06:42:23;13.23;;;2.72;;
50605;SDS011;36557;53.572;10.170;2023-04-25T06:44:49;13.88;;;2.60;;
50605;SDS011;36557;53.572;10.170;2023-04-25T06:47:15;14.68;;;2.60;;
50605;SDS011;36557;53.572;10.170;2023-04-25T06:49:41;12.02;;;2.35;;
50605;SDS011;36557;53.572;10.170;2023-04-25T06:52:07;8.43;;;2.00;;
50605;SDS011;36557;53.572;10.170;2023-04-25T06:54:33;13.77;;;2.45;;
50605;SDS011;36557;53.572;10.170;2023-04-25T06:56:59;11.60;;;2.97;;
50605;SDS011;36557;53.572;10.170;2023-04-25T06:59:26;10.68;;;2.13;;
50605;SDS011;36557;53.572;10.170;2023-04-25T07:01:52;9.60;;;1.88;;
50605;SDS011;36557;53.572;10.170;2023-04-25T07:04:18;8.95;;;1.80;;
50605;SDS011;36557;53.572;10.170;2023-04-25T07:06:44;10.45;;;2.25;;
50605;SDS011;36557;53.572;10.170;2023-04-25T07:09:12;12.82;;;2.10;;
50605;SDS011;36557;53.572;10.170;2023-04-25T07:11:38;12.30;;;1.92;;
50605;SDS011;36557;53.572;10.170;2023-04-25T07:14:04;8.35;;;1.73;;
50605;SDS011;36557;53.572;10.170;2023-04-25T07:16:30;8.65;;;1.80;;
50605;SDS011;36557;53.572;10.170;2023-04-25T07:18:56;8.50;;;1.70;;
50605;SDS011;36557;53.572;10.170;2023-04-25T07:21:24;12.30;;;2.00;;
50605;SDS011;36557;53.572;10.170;2023-04-25T07:23:50;7.68;;;1.80;;
50605;SDS011;36557;53.572;10.170;2023-04-25T07:26:16;7.13;;;1.50;;
50605;SDS011;36557;53.572;10.170;2023-04-25T07:28:42;6.45;;;1.50;;
50605;SDS011;36557;53.572;10.170;2023-04-25T07:31:08;7.78;;;1.55;;
50605;SDS011;36557;53.572;10.170;2023-04-25T07:33:34;6.72;;;1.70;;
50605;SDS011;36557;53.572;10.170;2023-04-25T07:36:00;8.05;;;1.55;;
50605;SDS011;36557;53.572;10.170;2023-04-25T07:38:27;7.25;;;1.48;;
50605;SDS011;36557;53.572;10.170;2023-04-25T07:40:53;9.63;;;1.73;;
50605;SDS011;36557;53.572;10.170;2023-04-25T07:43:19;6.53;;;1.35;;
50605;SDS011;36557;53.572;10.170;2023-04-25T07:45:45;7.45;;;1.60;;
50605;SDS011;36557;53.572;10.170;2023-04-25T07:48:16;5.35;;;1.23;;
50605;SDS011;36557;53.572;10.170;2023-04-25T07:50:43;6.63;;;2.05;;
50605;SDS011;36557;53.572;10.170;2023-04-25T07:53:10;7.65;;;1.42;;
50605;SDS011;36557;53.572;10.170;2023-04-25T07:55:36;9.00;;;1.80;;
50605;SDS011;36557;53.572;10.170;2023-04-25T07:58:05;10.45;;;1.45;;
50605;SDS011;36557;53.572;10.170;2023-04-25T08:00:31;6.05;;;1.50;;
50605;SDS011;36557;53.572;10.170;2023-04-25T08:02:57;8.68;;;1.80;;
50605;SDS011;36557;53.572;10.170;2023-04-25T08:05:23;7.20;;;1.60;;
50605;SDS011;36557;53.572;10.170;2023-04-25T08:07:49;12.98;;;1.98;;
50605;SDS011;36557;53.572;10.170;2023-04-25T08:10:15;8.98;;;1.80;;
50605;SDS011;36557;53.572;10.170;2023-04-25T08:12:41;9.90;;;2.60;;
50605;SDS011;36557;53.572;10.170;2023-04-25T08:15:08;8.38;;;1.70;;
50605;SDS011;36557;53.572;10.170;2023-04-25T08:17:34;9.88;;;1.92;;
50605;SDS011;36557;53.572;10.170;2023-04-25T08:20:00;8.10;;;1.30;;
50605;SDS011;36557;53.572;10.170;2023-04-25T08:22:30;10.85;;;1.75;;
50605;SDS011;36557;53.572;10.170;2023-04-25T08:24:56;9.73;;;1.80;;
50605;SDS011;36557;53.572;10.170;2023-04-25T08:27:22;8.13;;;1.45;;
50605;SDS011;36557;53.572;10.170;2023-04-25T08:29:49;8.40;;;1.60;;
50605;SDS011;36557;53.572;10.170;2023-04-25T08:32:15;8.23;;;1.30;;
50605;SDS011;36557;53.572;10.170;2023-04-25T08:34:42;5.60;;;1.20;;
50605;SDS011;36557;53.572;10.170;2023-04-25T08:37:09;4.88;;;1.00;;
50605;SDS011;36557;53.572;10.170;2023-04-25T08:39:35;5.88;;;1.00;;
50605;SDS011;36557;53.572;10.170;2023-04-25T08:42:05;5.40;;;1.25;;
50605;SDS011;36557;53.572;10.170;2023-04-25T08:44:35;5.25;;;0.93;;
50605;SDS011;36557;53.572;10.170;2023-04-25T08:47:04;6.05;;;1.10;;
50605;SDS011;36557;53.572;10.170;2023-04-25T08:49:34;5.53;;;1.00;;
50605;SDS011;36557;53.572;10.170;2023-04-25T08:52:00;8.48;;;1.40;;
50605;SDS011;36557;53.572;10.170;2023-04-25T08:54:27;7.03;;;1.23;;
50605;SDS011;36557;53.572;10.170;2023-04-25T08:56:55;10.52;;;1.40;;
50605;SDS011;36557;53.572;10.170;2023-04-25T08:59:22;4.85;;;1.20;;
50605;SDS011;36557;53.572;10.170;2023-04-25T09:01:49;7.32;;;1.50;;
50605;SDS011;36557;53.572;10.170;2023-04-25T09:04:16;10.07;;;1.63;;
50605;SDS011;36557;53.572;10.170;2023-04-25T09:06:44;7.05;;;1.55;;
50605;SDS011;36557;53.572;10.170;2023-04-25T09:09:10;7.90;;;1.70;;
50605;SDS011;36557;53.572;10.170;2023-04-25T09:11:37;12.88;;;1.88;;
50605;SDS011;36557;53.572;10.170;2023-04-25T09:14:12;7.20;;;1.55;;
50605;SDS011;36557;53.572;10.170;2023-04-25T09:21:56;7.93;;;1.55;;
50605;SDS011;36557;53.572;10.170;2023-04-25T09:27:08;6.72;;;1.52;;
50605;SDS011;36557;53.572;10.170;2023-04-25T09:29:35;5.07;;;1.02;;
50605;SDS011;36557;53.572;10.170;2023-04-25T09:32:16;7.88;;;1.50;;
50605;SDS011;36557;53.572;10.170;2023-04-25T09:34:43;6.22;;;1.92;;
50605;SDS011;36557;53.572;10.170;2023-04-25T09:37:10;8.32;;;1.33;;
50605;SDS011;36557;53.572;10.170;2023-04-25T09:39:37;6.07;;;1.77;;
50605;SDS011;36557;53.572;10.170;2023-04-25T09:42:03;10.82;;;1.58;;
50605;SDS011;36557;53.572;10.170;2023-04-25T09:44:29;7.20;;;1.60;;
50605;SDS011;36557;53.572;10.170;2023-04-25T09:46:55;5.80;;;1.88;;
50605;SDS011;36557;53.572;10.170;2023-04-25T09:49:22;6.07;;;1.20;;
50605;SDS011;36557;53.572;10.170;2023-04-25T09:51:54;8.75;;;1.20;;
50605;SDS011;36557;53.572;10.170;2023-04-25T09:54:21;7.22;;;1.88;;
50605;SDS011;36557;53.572;10.170;2023-04-25T09:56:48;5.00;;;0.98;;
50605;SDS011;36557;53.572;10.170;2023-04-25T09:59:14;5.03;;;0.90;;
50605;SDS011;36557;53.572;10.170;2023-04-25T10:01:40;3.42;;;1.10;;
50605;SDS011;36557;53.572;10.170;2023-04-25T10:04:10;3.55;;;0.70;;
50605;SDS011;36557;53.572;10.170;2023-04-25T10:06:37;6.00;;;1.10;;
50605;SDS011;36557;53.572;10.170;2023-04-25T10:09:03;2.95;;;0.80;;
50605;SDS011;36557;53.572;10.170;2023-04-25T10:11:30;6.55;;;1.23;;
50605;SDS011;36557;53.572;10.170;2023-04-25T10:13:56;6.97;;;1.63;;
50605;SDS011;36557;53.572;10.170;2023-04-25T10:16:22;11.80;;;1.60;;
50605;SDS011;36557;53.572;10.170;2023-04-25T10:18:50;5.30;;;1.23;;
50605;SDS011;36557;53.572;10.170;2023-04-25T10:21:16;6.80;;;1.40;;
50605;SDS011;36557;53.572;10.170;2023-04-25T10:23:43;4.88;;;1.10;;
50605;SDS011;36557;53.572;10.170;2023-04-25T10:26:10;8.85;;;1.33;;
50605;SDS011;36557;53.572;10.170;2023-04-25T10:28:57;6.30;;;1.30;;
50605;SDS011;36557;53.572;10.170;2023-04-25T10:33:49;7.28;;;1.80;;
50605;SDS011;36557;53.572;10.170;2023-04-25T10:36:17;6.88;;;1.17;;
50605;SDS011;36557;53.572;10.170;2023-04-25T10:38:44;6.10;;;1.17;;
50605;SDS011;36557;53.572;10.170;2023-04-25T10:41:11;4.05;;;0.73;;
50605;SDS011;36557;53.572;10.170;2023-04-25T10:43:41;4.90;;;1.30;;
50605;SDS011;36557;53.572;10.170;2023-04-25T10:48:43;6.32;;;0.90;;
50605;SDS011;36557;53.572;10.170;2023-04-25T10:51:12;4.60;;;1.08;;
50605;SDS011;36557;53.572;10.170;2023-04-25T10:53:41;6.78;;;1.17;;
50605;SDS011;36557;53.572;10.170;2023-04-25T10:56:10;7.18;;;1.27;;
50605;SDS011;36557;53.572;10.170;2023-04-25T10:58:41;2.75;;;0.98;;
50605;SDS011;36557;53.572;10.170;2023-04-25T11:01:07;6.65;;;1.48;;
50605;SDS011;36557;53.572;10.170;2023-04-25T11:03:37;6.70;;;1.70;;
50605;SDS011;36557;53.572;10.170;2023-04-25T11:06:04;9.10;;;1.67;;
50605;SDS011;36557;53.572;10.170;2023-04-25T11:08:41;8.23;;;1.17;;
50605;SDS011;36557;53.572;10.170;2023-04-25T11:11:13;6.18;;;1.40;;
50605;SDS011;36557;53.572;10.170;2023-04-25T11:13:39;3.25;;;1.00;;
50605;SDS011;36557;53.572;10.170;2023-04-25T11:16:07;6.82;;;1.52;;
50605;SDS011;36557;53.572;10.170;2023-04-25T11:18:33;5.65;;;1.10;;
50605;SDS011;36557;53.572;10.170;2023-04-25T11:20:59;8.30;;;1.27;;
50605;SDS011;36557;53.572;10.170;2023-04-25T11:23:25;7.82;;;1.00;;
50605;SDS011;36557;53.572;10.170;2023-04-25T11:25:52;6.88;;;1.58;;
50605;SDS011;36557;53.572;10.170;2023-04-25T11:28:21;4.82;;;1.30;;
50605;SDS011;36557;53.572;10.170;2023-04-25T11:30:48;6.72;;;1.65;;
50605;SDS011;36557;53.572;10.170;2023-04-25T11:33:18;4.70;;;1.23;;
50605;SDS011;36557;53.572;10.170;2023-04-25T11:35:44;6.13;;;0.77;;
50605;SDS011;36557;53.572;10.170;2023-04-25T11:38:10;6.03;;;1.30;;
50605;SDS011;36557;53.572;10.170;2023-04-25T11:40:36;5.97;;;1.20;;
50605;SDS011;36557;53.572;10.170;2023-04-25T11:43:02;4.63;;;1.10;;
50605;SDS011;36557;53.572;10.170;2023-04-25T11:45:28;8.27;;;1.92;;
50605;SDS011;36557;53.572;10.170;2023-04-25T11:47:56;5.45;;;1.20;;
50605;SDS011;36557;53.572;10.170;2023-04-25T11:50:22;5.20;;;1.27;;
50605;SDS011;36557;53.572;10.170;2023-04-25T11:52:48;7.13;;;1.50;;
50605;SDS011;36557;53.572;10.170;2023-04-25T11:55:18;7.22;;;1.35;;
50605;SDS011;36557;53.572;10.170;2023-04-25T11:57:45;5.57;;;1.30;;
50605;SDS011;36557;53.572;10.170;2023-04-25T12:02:45;4.47;;;0.90;;
50605;SDS011;36557;53.572;10.170;2023-04-25T12:05:12;3.97;;;0.90;;
50605;SDS011;36557;53.572;10.170;2023-04-25T12:07:38;9.60;;;1.42;;
50605;SDS011;36557;53.572;10.170;2023-04-25T12:12:33;4.78;;;1.10;;
50605;SDS011;36557;53.572;10.170;2023-04-25T12:15:09;6.53;;;0.70;;
50605;SDS011;36557;53.572;10.170;2023-04-25T12:17:35;3.40;;;0.63;;
50605;SDS011;36557;53.572;10.170;2023-04-25T12:20:21;3.03;;;0.93;;
50605;SDS011;36557;53.572;10.170;2023-04-25T12:22:50;2.47;;;0.70;;
50605;SDS011;36557;53.572;10.170;2023-04-25T12:28:36;3.38;;;0.77;;
50605;SDS011;36557;53.572;10.170;2023-04-25T12:31:00;2.90;;;0.77;;
50605;SDS011;36557;53.572;10.170;2023-04-25T12:33:29;2.78;;;0.85;;
50605;SDS011;36557;53.572;10.170;2023-04-25T12:35:55;4.05;;;0.80;;
50605;SDS011;36557;53.572;10.170;2023-04-25T12:38:23;1.85;;;0.68;;
50605;SDS011;36557;53.572;10.170;2023-04-25T12:40:49;4.38;;;1.60;;
50605;SDS011;36557;53.572;10.170;2023-04-25T12:43:15;3.97;;;0.90;;
50605;SDS011;36557;53.572;10.170;2023-04-25T12:45:42;4.15;;;1.05;;
50605;SDS011;36557;53.572;10.170;2023-04-25T12:48:08;4.50;;;1.10;;
50605;SDS011;36557;53.572;10.170;2023-04-25T12:50:35;3.35;;;0.68;;
50605;SDS011;36557;53.572;10.170;2023-04-25T12:53:01;8.82;;;1.00;;
50605;SDS011;36557;53.572;10.170;2023-04-25T12:55:27;5.55;;;1.20;;
50605;SDS011;36557;53.572;10.170;2023-04-25T12:57:53;3.88;;;1.17;;
50605;SDS011;36557;53.572;10.170;2023-04-25T13:00:19;4.32;;;1.08;;
50605;SDS011;36557;53.572;10.170;2023-04-25T13:02:45;3.17;;;1.13;;
50605;SDS011;36557;53.572;10.170;2023-04-25T13:05:13;5.60;;;0.90;;
50605;SDS011;36557;53.572;10.170;2023-04-25T13:07:39;3.78;;;0.65;;
50605;SDS011;36557;53.572;10.170;2023-04-25T13:10:06;5.00;;;1.25;;
50605;SDS011;36557;53.572;10.170;2023-04-25T13:12:32;6.43;;;0.98;;
50605;SDS011;36557;53.572;10.170;2023-04-25T13:14:58;4.18;;;1.05;;
50605;SDS011;36557;53.572;10.170;2023-04-25T13:17:24;3.60;;;1.00;;
50605;SDS011;36557;53.572;10.170;2023-04-25T13:19:50;5.35;;;1.05;;
50605;SDS011;36557;53.572;10.170;2023-04-25T13:22:15;4.95;;;1.20;;
50605;SDS011;36557;53.572;10.170;2023-04-25T13:24:42;4.45;;;1.23;;
50605;SDS011;36557;53.572;10.170;2023-04-25T13:27:08;5.45;;;1.52;;
50605;SDS011;36557;53.572;10.170;2023-04-25T13:29:33;1.40;;;0.80;;
50605;SDS011;36557;53.572;10.170;2023-04-25T13:32:00;9.63;;;1.45;;
50605;SDS011;36557;53.572;10.170;2023-04-25T13:34:27;3.08;;;0.75;;
50605;SDS011;36557;53.572;10.170;2023-04-25T13:36:54;4.47;;;0.80;;
50605;SDS011;36557;53.572;10.170;2023-04-25T13:39:20;3.67;;;1.05;;
50605;SDS011;36557;53.572;10.170;2023-04-25T13:41:45;2.95;;;0.80;;
50605;SDS011;36557;53.572;10.170;2023-04-25T13:44:11;4.00;;;0.95;;
50605;SDS011;36557;53.572;10.170;2023-04-25T13:46:37;3.13;;;0.57;;
50605;SDS011;36557;53.572;10.170;2023-04-25T13:49:03;4.10;;;1.00;;
50605;SDS011;36557;53.572;10.170;2023-04-25T13:51:29;4.93;;;1.02;;
50605;SDS011;36557;53.572;10.170;2023-04-25T13:53:55;2.78;;;0.93;;
50605;SDS011;36557;53.572;10.170;2023-04-25T13:56:22;9.32;;;1.50;;
50605;SDS011;36557;53.572;10.170;2023-04-25T13:58:48;3.75;;;1.10;;
50605;SDS011;36557;53.572;10.170;2023-04-25T14:01:16;3.38;;;0.90;;
50605;SDS011;36557;53.572;10.170;2023-04-25T14:03:42;5.40;;;1.00;;
50605;SDS011;36557;53.572;10.170;2023-04-25T14:06:08;7.47;;;1.40;;
50605;SDS011;36557;53.572;10.170;2023-04-25T14:08:34;6.15;;;1.10;;
50605;SDS011;36557;53.572;10.170;2023-04-25T14:11:00;3.60;;;1.00;;
50605;SDS011;36557;53.572;10.170;2023-04-25T14:13:25;3.63;;;0.93;;
50605;SDS011;36557;53.572;10.170;2023-04-25T14:15:51;10.00;;;1.23;;
50605;SDS011;36557;53.572;10.170;2023-04-25T14:18:17;4.13;;;0.98;;
50605;SDS011;36557;53.572;10.170;2023-04-25T14:20:44;3.65;;;0.77;;
50605;SDS011;36557;53.572;10.170;2023-04-25T14:23:10;5.75;;;1.02;;
50605;SDS011;36557;53.572;10.170;2023-04-25T14:25:36;4.03;;;1.08;;
50605;SDS011;36557;53.572;10.170;2023-04-25T14:28:03;4.47;;;1.20;;
50605;SDS011;36557;53.572;10.170;2023-04-25T14:30:29;4.80;;;1.10;;
50605;SDS011;36557;53.572;10.170;2023-04-25T14:32:55;4.93;;;1.00;;
50605;SDS011;36557;53.572;10.170;2023-04-25T14:35:21;5.78;;;1.02;;
50605;SDS011;36557;53.572;10.170;2023-04-25T14:37:47;5.95;;;1.45;;
50605;SDS011;36557;53.572;10.170;2023-04-25T14:40:13;4.80;;;1.20;;
50605;SDS011;36557;53.572;10.170;2023-04-25T14:42:41;3.15;;;0.93;;
50605;SDS011;36557;53.572;10.170;2023-04-25T14:45:07;4.55;;;1.60;;
50605;SDS011;36557;53.572;10.170;2023-04-25T14:47:34;3.97;;;1.20;;